Latest Weather Observations for Strahan

IDT60801

Issued at 10:05 am EST Saturday 30 August 2014 (issued every 30 minutes, with the page automatically refreshed every 10 minutes)

About weather observations | Map of weather stations | Latest weather observations for TAS | Other Formats
Station Details ID: 097072 Name: STRAHAN AERODROME Lat: -42.16 Lon: 145.29 Height: 21.0 m
Data from the previous 72 hours. | See also: Recent months at Strahan
Date/Time
EST
Temp
°C
App
Temp
°C
Dew
Point
Rel
Hum
%
Delta-T
°C
Wind Press
QNH
hPa
Press
MSL
hPa
Rain
since 9 am
mm
Dir
 
Spd
km/h
Gust
km/h
Spd
kts
Gust
kts
30/10:00am 12.6 10.0 6.0 64 3.1 E 9 13 5 7 1026.4 1026.4 0.0
30/09:30am 10.6 8.3 5.6 71 2.3 ENE 7 11 4 6 1026.8 1026.8 0.0
30/09:00am 8.6 6.5 5.9 83 1.2 E 6 9 3 5 1027.2 1027.2 0.2
30/08:30am 7.0 6.2 6.3 95 0.3 CALM 0 0 0 0 1027.5 1027.5 0.2
30/08:00am 5.1 2.6 4.7 97 0.2 NE 7 9 4 5 1027.8 1027.8 0.2
30/07:30am 3.7 1.9 3.3 97 0.2 NE 2 9 1 5 1027.8 1027.8 0.2
30/07:00am 3.8 0.7 3.4 97 0.2 NNE 9 9 5 5 1027.7 1027.7 0.2
30/06:30am 3.9 1.2 3.5 97 0.2 NNE 7 9 4 5 1027.6 1027.6 0.2
30/06:00am 4.7 1.4 4.3 97 0.2 NE 11 13 6 7 1027.4 1027.4 0.2
30/05:31am 4.4 1.4 4.0 97 0.2 NNE 9 11 5 6 1027.4 1027.4 0.2
30/05:30am 4.3 1.3 3.9 97 0.2 NNE 9 11 5 6 1027.4 1027.4 0.2
30/05:06am 4.3 1.6 3.9 97 0.2 ENE 7 9 4 5 1027.4 1027.4 0.2
30/05:00am 4.4 1.9 4.0 97 0.2 ENE 6 7 3 4 1027.4 1027.4 0.2
30/04:30am 4.1 1.6 3.7 97 0.2 ENE 6 9 3 5 1027.6 1027.6 0.2
30/04:00am 3.6 1.8 3.2 97 0.2 NE 2 6 1 3 1027.7 1027.7 0.2
30/03:30am 4.3 1.8 3.9 97 0.2 NNE 6 9 3 5 1027.8 1027.8 0.2
30/03:05am 4.3 1.3 3.9 97 0.2 NE 9 11 5 6 1027.8 1027.8 0.2
30/03:00am 4.4 1.4 4.0 97 0.2 ENE 9 13 5 7 1027.9 1027.9 0.2
30/02:30am 3.6 1.0 3.2 97 0.2 NNE 6 7 3 4 1028.3 1028.3 0.2
30/02:29am 3.6 1.0 3.2 97 0.2 NNE 6 7 3 4 1028.3 1028.3 0.2
30/02:14am 4.4 1.9 4.0 97 0.2 NNE 6 9 3 5 1028.2 1028.2 0.2
30/02:00am 3.9 1.4 3.5 97 0.2 NE 6 7 3 4 1028.3 1028.3 0.2
30/01:59am 3.9 1.4 3.5 97 0.2 NE 6 9 3 5 1028.3 1028.3 0.2
30/01:58am 3.9 1.4 3.5 97 0.2 NE 6 9 3 5 1028.3 1028.3 0.2
30/01:31am 4.2 2.8 3.8 97 0.2 CALM 0 0 0 0 1028.5 1028.5 0.2
30/01:30am 4.2 2.8 3.8 97 0.2 CALM 0 0 0 0 1028.5 1028.5 0.2
30/01:00am 5.3 2.8 4.9 97 0.2 NNE 7 9 4 5 1028.7 1028.7 0.2
30/12:30am 5.6 3.2 5.2 97 0.2 NNE 7 9 4 5 1028.7 1028.7 0.2
30/12:00am 5.5 2.7 5.1 97 0.2 NE 9 11 5 6 1028.8 1028.8 0.2
 
Date/Time
EST
Temp
°C
App
Temp
°C
Dew
Point
Rel
Hum
%
Delta-T
°C
Wind Press
QNH
hPa
Press
MSL
hPa
Rain
since 9 am
mm
Dir
 
Spd
km/h
Gust
km/h
Spd
kts
Gust
kts
29/11:30pm 5.6 3.2 5.2 97 0.2 NNE 7 9 4 5 1029.1 1029.1 0.2
29/11:00pm 5.5 3.1 5.1 97 0.2 NNE 7 9 4 5 1029.1 1029.1 0.2
29/10:30pm 6.3 3.3 5.9 97 0.2 NNE 11 13 6 7 1029.2 1029.2 0.2
29/10:00pm 6.3 3.3 5.9 97 0.2 NNE 11 13 6 7 1029.2 1029.2 0.2
29/09:30pm 4.5 2.1 4.1 97 0.2 NNE 6 9 3 5 1029.2 1029.2 0.2
29/09:00pm 6.0 3.7 5.6 97 0.2 NNE 7 9 4 5 1029.3 1029.3 0.2
29/08:31pm 6.2 3.9 5.8 97 0.2 N 7 9 4 5 1029.2 1029.2 0.2
29/08:30pm 6.0 3.7 5.6 97 0.2 N 7 9 4 5 1029.1 1029.1 0.2
29/08:16pm 5.6 3.2 5.2 97 0.2 NNW 7 9 4 5 1029.0 1029.0 0.2
29/08:00pm 5.9 3.5 5.3 96 0.3 N 7 7 4 4 1028.9 1028.9 0.2
29/07:30pm 6.4 4.3 5.7 95 0.3 N 6 6 3 3 1028.9 1028.9 0.2
29/07:00pm 8.0 6.3 7.4 96 0.3 N 6 7 3 4 1028.8 1028.8 0.2
29/06:30pm 8.8 6.9 7.7 93 0.5 NE 7 9 4 5 1028.7 1028.7 0.2
29/06:00pm 9.6 8.7 7.9 89 0.8 NNW 2 7 1 4 1028.6 1028.6 0.2
29/05:30pm 10.7 8.9 7.9 83 1.4 WNW 7 9 4 5 1028.6 1028.6 0.2
29/05:00pm 11.7 9.5 8.0 78 1.8 W 9 11 5 6 1028.6 1028.6 0.2
29/04:30pm 12.2 10.3 7.7 74 2.2 NW 7 13 4 7 1028.4 1028.4 0.2
29/04:00pm 12.6 10.1 8.1 74 2.2 WNW 11 17 6 9 1028.4 1028.4 0.2
29/03:30pm 13.2 10.4 8.5 73 2.3 W 13 17 7 9 1028.5 1028.5 0.2
29/03:00pm 13.2 9.5 7.9 70 2.6 W 17 19 9 10 1028.5 1028.5 0.2
29/02:30pm 13.5 10.0 7.1 65 3.1 W 15 19 8 10 1028.5 1028.5 0.2
29/02:00pm 13.7 10.0 6.1 60 3.6 W 15 20 8 11 1028.7 1028.7 0.2
29/01:30pm 14.3 11.7 6.2 58 3.9 NW 9 15 5 8 1028.8 1028.8 0.2
29/01:00pm 13.8 10.1 6.4 61 3.5 W 15 20 8 11 1029.0 1029.0 0.2
29/12:30pm 13.9 9.9 6.7 62 3.5 W 17 22 9 12 1029.4 1029.4 0.2
29/12:00pm 13.5 9.3 5.7 59 3.6 W 17 20 9 11 1029.5 1029.5 0.2
29/11:30am 13.5 9.4 6.1 61 3.5 WNW 17 20 9 11 1029.7 1029.7 0.0
29/11:00am 13.5 10.9 6.1 61 3.5 NNW 9 13 5 7 1029.5 1029.5 0.0
29/10:30am 12.8 10.0 5.2 60 3.5 N 9 13 5 7 1029.7 1029.7 0.0
29/10:00am 12.2 9.2 5.8 65 3.0 N 11 17 6 9 1029.8 1029.8 0.0
29/09:30am 11.1 8.0 5.6 69 2.5 NNE 11 17 6 9 1029.9 1029.9 0.0
29/09:00am 9.8 6.7 5.6 75 1.9 NNE 11 19 6 10 1029.9 1029.9 0.0
29/08:30am 7.8 4.2 4.9 82 1.3 NNE 13 17 7 9 1029.6 1029.6 0.0
29/08:00am 7.2 5.0 5.2 87 0.9 NE 6 9 3 5 1029.5 1029.5 0.0
29/07:30am 6.2 2.9 4.5 89 0.7 NNE 11 17 6 9 1029.4 1029.4 0.0
29/07:00am 5.9 2.6 4.4 90 0.6 NNE 11 15 6 8 1029.0 1029.0 0.0
29/06:30am 5.8 2.5 4.6 92 0.5 NNE 11 15 6 8 1028.8 1028.8 0.0
29/06:00am 5.4 2.0 4.2 92 0.5 NNE 11 13 6 7 1028.7 1028.7 0.0
29/05:30am 4.9 1.4 3.6 91 0.5 NNE 11 15 6 8 1028.5 1028.5 0.0
29/05:00am 4.9 1.1 3.7 92 0.5 NNE 13 17 7 9 1028.3 1028.3 0.0
29/04:30am 4.8 0.9 3.6 92 0.5 NNE 13 17 7 9 1028.3 1028.3 0.0
29/04:00am 4.7 1.2 3.7 93 0.4 NNE 11 17 6 9 1028.2 1028.2 0.0
29/03:30am 4.4 1.3 3.5 94 0.4 N 9 13 5 7 1028.0 1028.0 0.0
29/03:00am 4.9 1.9 4.2 95 0.3 NNE 9 13 5 7 1027.8 1027.8 0.0
29/02:30am 5.1 1.4 4.5 96 0.3 NNE 13 15 7 8 1028.1 1028.1 0.0
29/02:00am 5.1 1.8 4.7 97 0.2 NE 11 15 6 8 1028.3 1028.3 0.0
29/01:30am 5.5 1.9 5.1 97 0.2 NNE 13 17 7 9 1028.7 1028.7 0.0
29/01:00am 5.3 2.8 4.9 97 0.2 N 7 9 4 5 1028.8 1028.8 0.0
29/12:30am 5.5 2.6 4.9 96 0.3 NNE 9 13 5 7 1028.8 1028.8 0.0
29/12:00am 6.9 4.8 6.5 97 0.2 NNE 7 13 4 7 1028.6 1028.6 0.0
 
Date/Time
EST
Temp
°C
App
Temp
°C
Dew
Point
Rel
Hum
%
Delta-T
°C
Wind Press
QNH
hPa
Press
MSL
hPa
Rain
since 9 am
mm
Dir
 
Spd
km/h
Gust
km/h
Spd
kts
Gust
kts
28/11:56pm 6.9 4.8 6.5 97 0.2 NNE 7 11 4 6 1028.6 1028.6 0.0
28/11:30pm 6.7 4.4 5.8 94 0.4 NNE 7 9 4 5 1028.6 1028.6 0.0
28/11:01pm 7.6 5.5 6.5 93 0.5 N 7 9 4 5 1028.4 1028.4 0.0
28/11:00pm 7.6 5.5 6.5 93 0.5 N 7 9 4 5 1028.5 1028.5 0.0
28/10:34pm 8.8 6.6 8.0 95 0.4 N 9 13 5 7 1028.5 1028.5 0.0
28/10:30pm 8.8 6.6 8.0 95 0.4 NNE 9 13 5 7 1028.6 1028.6 0.0
28/10:00pm 9.2 7.6 8.6 96 0.3 NNE 7 9 4 5 1028.5 1028.5 0.0
28/09:30pm 9.5 7.6 8.9 96 0.3 NNW 9 13 5 7 1028.4 1028.4 0.0
28/09:00pm 9.8 6.3 8.6 92 0.6 NNW 17 22 9 12 1028.4 1028.4 0.0
28/08:30pm 10.4 8.4 8.7 89 0.8 NNW 9 13 5 7 1028.4 1028.4 0.0
28/08:26pm 10.5 8.5 8.8 89 0.8 NNW 9 13 5 7 1028.4 1028.4 0.0
28/08:00pm 10.4 7.9 8.2 86 1.1 NNW 11 13 6 7 1028.2 1028.2 0.0
28/07:30pm 10.3 8.2 8.4 88 0.9 N 9 11 5 6 1028.1 1028.1 0.0
28/07:00pm 10.5 9.0 8.6 88 0.9 N 6 9 3 5 1028.1 1028.1 0.0
28/06:30pm 10.8 9.1 8.4 85 1.2 NE 7 9 4 5 1028.0 1028.0 0.0
28/06:27pm 10.8 9.1 8.4 85 1.2 NE 7 9 4 5 1028.0 1028.0 0.0
28/06:16pm 10.9 9.4 8.3 84 1.3 N 6 9 3 5 1027.9 1027.9 0.0
28/06:00pm 11.1 9.6 8.3 83 1.4 NNW 6 9 3 5 1027.8 1027.8 0.0
28/05:30pm 11.4 9.3 8.3 81 1.5 NW 9 13 5 7 1027.6 1027.6 0.0
28/05:00pm 11.9 9.4 8.2 78 1.8 WNW 11 19 6 10 1027.4 1027.4 0.0
28/04:30pm 12.2 9.2 7.7 74 2.2 WNW 13 20 7 11 1027.2 1027.2 0.0
28/04:00pm 12.6 8.7 7.1 69 2.6 W 17 20 9 11 1026.9 1026.9 0.0
28/03:30pm 12.8 9.0 7.7 71 2.5 W 17 20 9 11 1026.6 1026.6 0.0
28/03:00pm 14.3 10.8 7.4 63 3.4 W 15 22 8 12 1026.6 1026.6 0.0
28/02:30pm 14.3 11.5 7.1 62 3.5 WNW 11 19 6 10 1026.6 1026.6 0.0
28/02:00pm 14.3 11.6 7.4 63 3.4 WNW 11 17 6 9 1026.9 1026.9 0.0
28/01:30pm 14.6 11.6 7.9 64 3.3 W 13 19 7 10 1027.2 1027.2 0.0
28/01:00pm 13.9 10.1 7.7 66 3.0 WNW 17 22 9 12 1027.6 1027.6 0.0
28/12:30pm 14.0 10.4 8.4 69 2.8 WNW 17 22 9 12 1027.8 1027.8 0.0
28/12:00pm 13.0 9.8 8.5 74 2.2 WNW 15 20 8 11 1028.1 1028.1 0.0
28/11:30am 13.1 10.0 7.3 68 2.8 WNW 13 19 7 10 1028.4 1028.4 0.0
28/11:00am 13.4 10.3 7.4 67 2.9 N 13 19 7 10 1028.6 1028.6 0.0
28/10:30am 11.9 9.6 7.6 75 2.1 NNE 9 13 5 7 1028.9 1028.9 0.0
28/10:00am 10.6 8.1 6.7 77 1.8 NNE 9 11 5 6 1029.2 1029.2 0.0
28/09:30am 9.5 7.5 7.3 86 1.0 NNE 7 11 4 6 1029.3 1029.3 0.0
28/09:00am 8.4 5.9 6.7 89 0.8 NE 9 13 5 7 1029.1 1029.1 0.2
28/08:30am 7.7 5.6 6.5 92 0.5 N 7 9 4 5 1029.2 - 0.2
28/08:00am 7.2 5.0 6.3 94 0.4 NNE 7 11 4 6 1029.0 1029.0 0.2
28/07:30am 6.0 2.8 5.3 95 0.3 NE 11 13 6 7 1028.8 - 0.2
28/07:00am 5.6 3.1 5.0 96 0.3 NE 7 9 4 5 1028.7 1028.7 0.2
28/06:30am 5.1 2.7 4.2 94 0.4 NE 6 7 3 4 1028.4 - 0.2
28/06:00am 5.8 2.6 5.1 95 0.3 NE 11 13 6 7 1028.2 1028.2 0.2
28/05:30am 5.2 2.6 4.3 94 0.4 NNE 7 11 4 6 1028.1 - 0.2
28/05:00am 5.7 3.3 5.1 96 0.3 NE 7 9 4 5 1028.0 1028.0 0.2
28/04:30am 5.7 3.5 5.3 97 0.2 NNE 6 9 3 5 1028.1 - 0.2
28/04:00am 6.0 3.7 5.6 97 0.2 N 7 11 4 6 1028.1 1028.1 0.2
28/03:30am 5.7 3.5 5.3 97 0.2 NNE 6 7 3 4 1028.1 - 0.2
28/03:00am 5.7 4.6 5.1 96 0.3 CALM 0 6 0 3 1028.0 1028.0 0.2
28/02:30am 6.3 3.7 5.9 97 0.2 N 9 11 5 6 1028.0 - 0.0
28/02:00am 6.0 3.7 5.6 97 0.2 NNE 7 11 4 6 1028.1 1028.1 0.0
28/01:34am 7.3 4.9 6.9 97 0.2 N 9 13 5 7 1028.1 - 0.0
28/01:30am 7.2 5.1 6.8 97 0.2 N 7 11 4 6 1028.2 - 0.0
28/01:11am 6.8 4.8 6.4 97 0.2 N 6 7 3 4 1028.3 - 0.0
28/01:00am 7.2 4.8 6.8 97 0.2 N 9 9 5 5 1028.1 1028.1 0.0
28/12:30am 8.7 7.2 8.3 97 0.2 NNE 6 7 3 4 1028.3 - 0.0
28/12:00am 9.0 6.6 8.5 97 0.2 NE 11 15 6 8 1028.0 1028.0 0.0
 
Date/Time
EST
Temp
°C
App
Temp
°C
Dew
Point
Rel
Hum
%
Delta-T
°C
Wind Press
QNH
hPa
Press
MSL
hPa
Rain
since 9 am
mm
Dir
 
Spd
km/h
Gust
km/h
Spd
kts
Gust
kts
27/11:30pm 8.7 5.8 8.3 97 0.2 NE 13 19 7 10 1028.1 - 0.0
27/11:27pm 8.4 5.5 8.0 97 0.2 NE 13 17 7 9 1028.2 - 0.0
27/11:00pm 7.4 5.4 7.0 97 0.2 N 7 9 4 5 1029.1 1029.1 0.0
27/10:57pm 7.8 5.9 7.4 97 0.2 N 7 9 4 5 1029.0 - 0.0
27/10:30pm 8.5 6.9 8.1 97 0.2 NE 6 7 3 4 1028.9 - 0.0
27/10:00pm 8.6 7.4 8.2 97 0.2 E 4 9 2 5 1029.2 1029.2 0.0
27/09:30pm 9.4 8.0 8.9 97 0.2 NNE 6 7 3 4 1029.2 - 0.0
27/09:00pm 9.4 9.2 8.9 97 0.2 CALM 0 0 0 0 1029.1 1029.1 0.0
27/08:48pm 9.3 9.0 8.8 97 0.2 CALM 0 0 0 0 1029.2 - 0.0
27/08:30pm 9.4 9.2 8.9 97 0.2 CALM 0 6 0 3 1029.0 - 0.0
27/08:08pm 9.3 9.0 8.8 97 0.2 CALM 0 0 0 0 1028.8 - 0.0
27/08:04pm 9.5 9.3 9.0 97 0.2 CALM 0 0 0 0 1028.7 - 0.0
27/08:00pm 9.7 9.5 9.2 97 0.2 CALM 0 0 0 0 1028.7 1028.7 0.0
27/07:46pm 9.3 8.2 8.5 95 0.4 SSE 4 7 2 4 1028.5 - 0.0
27/07:36pm 10.4 9.3 9.8 96 0.3 SSE 6 7 3 4 1028.5 - 0.0
27/07:30pm 10.2 9.0 9.4 95 0.4 SSE 6 7 3 4 1028.4 - 0.0
27/07:00pm 10.8 9.5 9.9 94 0.5 SSE 7 9 4 5 1028.1 1028.1 0.0
27/06:30pm 11.0 9.9 9.9 93 0.6 SSW 6 7 3 4 1027.8 - 0.0
27/06:00pm 11.1 9.7 9.7 91 0.7 WSW 7 9 4 5 1027.5 1027.5 0.0
27/05:40pm 11.4 9.6 9.5 88 1.0 WSW 9 11 5 6 1027.2 - 0.0
27/05:30pm 11.7 10.5 9.4 86 1.2 SW 6 11 3 6 1027.0 - 0.0
27/05:00pm 12.9 12.1 9.7 81 1.6 NW 4 7 2 4 1026.8 1026.8 0.0
27/04:30pm 13.5 11.1 9.9 79 1.9 NNW 13 20 7 11 1026.7 - 0.0
27/04:28pm 13.5 11.1 9.9 79 1.9 NNW 13 20 7 11 1026.7 - 0.0
27/04:00pm 13.3 10.9 9.9 80 1.7 WNW 13 17 7 9 1027.0 1027.0 0.0
27/03:43pm 13.7 11.3 9.9 78 2.0 NW 13 19 7 10 1027.0 - 0.0
27/03:30pm 13.9 11.5 9.9 77 2.1 WNW 13 20 7 11 1026.9 - 0.0
27/03:00pm 14.6 11.8 10.0 74 2.4 WNW 15 20 8 11 1026.9 1026.9 0.0
27/02:30pm 14.9 12.0 9.5 70 2.8 WNW 15 20 8 11 1026.8 - 0.0
27/02:00pm 15.1 10.9 9.7 70 2.8 WNW 22 28 12 15 1026.9 1026.9 0.0
27/01:30pm 15.0 10.2 8.9 67 3.1 W 24 32 13 17 1026.8 - 0.0
27/01:00pm 16.4 11.7 7.6 56 4.4 W 22 26 12 14 1026.9 1026.9 0.0
27/12:30pm 17.3 13.8 7.4 52 5.0 NW 15 19 8 10 1027.0 - 0.0
27/12:00pm 17.6 12.1 4.2 41 6.3 N 22 32 12 17 1026.9 1026.9 0.0
27/11:30am 17.0 12.2 5.6 47 5.5 N 20 33 11 18 1026.9 - 0.0
27/11:00am 16.3 11.9 5.0 47 5.3 N 17 28 9 15 1027.2 1027.2 0.0
27/10:30am 15.4 11.9 5.6 52 4.7 N 13 20 7 11 1027.6 - 0.0

Other Formats:

Comma delimited format used in spreadsheet applications
http://www.bom.gov.au/fwo/IDT60801/IDT60801.94956.axf

JavaScript Object Notation format (JSON) in row-major order
http://www.bom.gov.au/fwo/IDT60801/IDT60801.94956.json